Leonard, Michigan
Current Conditions -  °F | °C
As of 4:53 PM on Monday 22 Dec 2014 (Local Time) from KD95 Reporting Station
Overcast Overcast  
Wind Chill: 30°   Ceiling: 10000
Heat Index: 35°   Visibility: 10mi
Dew Point: 29°   Wind: 6mph
Humidity: 79%   Direction: 130°SE
Pressure: 29.95"   Gusts: NA
Location:  42.87°N, 83.14°W
Report Text: KD95 222153Z AUTO 13005KT 10SM OVC100 02/M02 A2995 RMK AO2 T00161017
Loading
Personal Weather Stations






























Interactive Weather Map New forecast layout! Learn more

10-Day Weather Forecast

Advertisements
Track Severe Weather on mobile